Time;durP1;ratioP1;P1;durP2;ratioP2;P2;SDS_P1;SDS_P2;PMS_P1;PMS_P2;Temp;Humidity;BMP_temperature;BMP_pressure;BME280_temperature;BME280_humidity;BME280_pressure;Samples;Min_cycle;Max_cycle;Signal;HPM_P1;HPM_P2
2022/06/22 06:10:44;;;;;;;;;18.50;17.50;;;;;20.41;49.80;100653.44;6259410;22;46465;-82
2022/06/22 06:13:35;;;;;;;;;18.25;17.00;;;;;20.38;49.93;100657.13;6308059;22;47302;-82
2022/06/22 06:16:07;;;;;;;;;17.75;16.50;;;;;20.37;49.41;100671.44;6310550;22;45438;-83
2022/06/22 06:18:39;;;;;;;;;14.25;14.25;;;;;20.37;49.98;100666.09;6310992;22;45176;-82
2022/06/22 06:21:10;;;;;;;;;17.50;15.50;;;;;20.37;49.74;100671.44;6281656;22;45402;-82
2022/06/22 06:34:04;;;;;;;;;;;;;;;;;;;;;
2022/06/22 06:46:44;;;;;;;;;25.50;24.00;;;;;20.21;50.08;100676.63;6286507;22;45835;-82
2022/06/22 06:49:09;;;;;;;;;19.00;18.00;;;;;20.22;50.26;100674.81;6281352;22;47148;-82
2022/06/22 06:51:39;;;;;;;;;21.50;19.50;;;;;20.21;50.01;100665.91;6309204;22;45841;-81
2022/06/22 06:54:27;;;;;;;;;;;;;;;;;;;;;
2022/06/22 06:57:16;;;;;;;;;17.25;14.00;;;;;20.28;50.27;100672.72;6307758;22;73153;-82
2022/06/22 06:59:45;;;;;;;;;15.75;11.75;;;;;20.31;50.26;100663.69;6306938;22;46476;-80
2022/06/22 07:02:21;;;;;;;;;19.25;17.00;;;;;20.36;50.15;100669.69;6307339;22;45588;-83
2022/06/22 07:04:47;;;;;;;;;20.75;16.25;;;;;20.35;50.24;100662.63;6309135;22;45425;-81
2022/06/22 07:11:02;;;;;;;;;18.75;17.75;;;;;20.37;50.41;100679.47;6180766;23;45587;-83
2022/06/22 07:14:21;;;;;;;;;20.00;18.25;;;;;20.36;49.98;100672.34;6278062;22;45284;-83
2022/06/22 07:16:54;;;;;;;;;18.00;16.75;;;;;20.34;50.30;100671.59;6280240;22;45355;-82
2022/06/22 07:19:32;;;;;;;;;20.00;17.50;;;;;20.33;50.23;100675.19;6280913;22;45423;-82
2022/06/22 07:22:09;;;;;;;;;15.50;14.50;;;;;20.39;50.48;100668.69;6280537;22;46991;-82
2022/06/22 07:25:02;;;;;;;;;15.00;15.00;;;;;20.41;50.19;100672.16;6308442;22;45318;-83
2022/06/22 07:27:39;;;;;;;;;17.00;13.75;;;;;20.45;50.06;100665.75;6268548;22;45387;-81
2022/06/22 07:30:13;;;;;;;;;18.50;16.25;;;;;20.48;49.91;100662.94;6310155;22;45442;-83
2022/06/22 07:32:48;;;;;;;;;17.75;16.75;;;;;20.48;50.05;100662.94;6284499;22;47211;-83
2022/06/22 07:35:24;;;;;;;;;19.00;16.75;;;;;20.51;49.77;100668.13;6283818;22;45440;-83
2022/06/22 07:37:59;;;;;;;;;20.25;19.25;;;;;20.55;50.07;100664.38;6285720;22;45393;-84
2022/06/22 07:40:27;;;;;;;;;13.00;10.50;;;;;20.58;49.68;100668.72;6282540;22;45521;-83
2022/06/22 07:42:56;;;;;;;;;19.75;17.75;;;;;20.63;49.89;100672.06;6282846;22;47981;-84
2022/06/22 07:45:25;;;;;;;;;20.25;17.00;;;;;20.70;49.79;100674.38;6282521;22;45262;-79
2022/06/22 07:48:15;;;;;;;;;15.00;14.00;;;;;20.80;49.40;100679.31;6311436;22;45298;-81
2022/06/22 07:50:50;;;;;;;;;20.50;20.00;;;;;20.88;49.34;100682.50;6285201;22;45432;-82
2022/06/22 07:53:30;;;;;;;;;17.50;14.50;;;;;21.02;49.16;100684.50;6284237;22;46446;-81
2022/06/22 07:56:12;;;;;;;;;21.50;19.00;;;;;21.15;49.47;100688.31;6283701;22;45329;-82
2022/06/22 07:58:44;;;;;;;;;26.00;23.50;;;;;21.25;48.87;100683.38;6311892;22;45401;-82
2022/06/22 08:01:14;;;;;;;;;17.50;17.00;;;;;21.34;48.60;100689.16;6283692;22;45200;-82
2022/06/22 08:06:56;;;;;;;;;16.00;13.75;;;;;21.48;48.58;100691.19;6299334;22;45426;-80
2022/06/22 08:09:40;;;;;;;;;17.00;16.25;;;;;21.57;48.61;100693.41;6284281;22;45311;-82
2022/06/22 08:12:09;;;;;;;;;16.25;16.25;;;;;21.65;48.19;100695.72;6310843;22;45157;-82
2022/06/22 08:14:34;;;;;;;;;16.25;15.50;;;;;21.71;48.04;100689.16;6311384;22;46599;-81
2022/06/22 08:17:05;;;;;;;;;19.75;18.00;;;;;21.74;47.81;100695.22;6311131;22;45338;-81
2022/06/22 08:19:33;;;;;;;;;16.00;14.50;;;;;21.79;47.98;100700.34;6283625;22;45135;-82
2022/06/22 08:22:04;;;;;;;;;14.00;13.50;;;;;21.81;47.88;100695.75;6284485;22;45168;-82
2022/06/22 08:24:32;;;;;;;;;11.00;10.75;;;;;21.83;47.88;100704.59;6281715;22;47376;-81
2022/06/22 08:27:19;;;;;;;;;14.50;14.00;;;;;21.87;47.46;100703.50;6311688;22;44735;-85
2022/06/22 08:29:48;;;;;;;;;20.00;16.25;;;;;21.87;47.30;100698.16;6289620;22;45327;-85
2022/06/22 08:32:34;;;;;;;;;19.75;17.75;;;;;21.89;46.94;100698.94;6290249;22;44777;-82
2022/06/22 08:35:16;;;;;;;;;14.00;14.00;;;;;21.96;46.96;100694.13;6311617;22;45480;-81
2022/06/22 08:38:34;;;;;;;;;18.75;16.25;;;;;22.12;47.05;100688.81;6285405;22;44732;-85
2022/06/22 08:41:51;;;;;;;;;17.00;17.00;;;;;22.36;46.83;100684.88;6223479;22;45356;-84
2022/06/22 08:44:35;;;;;;;;;19.75;16.25;;;;;22.60;46.18;100674.63;6260722;22;45457;-82
2022/06/22 08:47:19;;;;;;;;;14.25;14.25;;;;;22.79;46.15;100684.34;6285227;22;47875;-81
2022/06/22 08:50:03;;;;;;;;;16.25;15.00;;;;;22.93;45.94;100694.28;6315665;22;45279;-82
2022/06/22 08:52:43;;;;;;;;;16.25;16.25;;;;;23.05;45.53;100694.50;6287564;22;44721;-82
2022/06/22 08:55:39;;;;;;;;;16.00;16.00;;;;;23.17;45.08;100689.38;6285983;22;45140;-81
2022/06/22 08:58:41;;;;;;;;;18.50;15.75;;;;;23.28;44.68;100693.22;6312779;22;45354;-85
2022/06/22 09:01:14;;;;;;;;;15.75;15.50;;;;;23.37;44.51;100691.81;6285349;22;45289;-83
2022/06/22 09:04:24;;;;;;;;;13.50;11.75;;;;;23.52;44.47;100687.34;6314641;22;45291;-82
2022/06/22 09:07:17;;;;;;;;;15.00;14.50;;;;;23.70;44.52;100686.25;6273388;22;45375;-82
2022/06/22 09:10:37;;;;;;;;;17.50;16.00;;;;;23.97;43.93;100682.91;6285168;22;46878;-82
2022/06/22 09:13:11;;;;;;;;;18.00;14.25;;;;;24.22;44.30;100687.66;6189906;22;45418;-82
2022/06/22 09:16:06;;;;;;;;;;;;;;;;;;;;;
2022/06/22 09:18:57;;;;;;;;;14.00;14.00;;;;;24.54;43.61;100690.19;6319853;22;71831;-82
2022/06/22 09:21:41;;;;;;;;;18.50;18.50;;;;;24.66;43.21;100692.13;6286048;22;47363;-82
2022/06/22 09:24:29;;;;;;;;;13.00;12.00;;;;;24.71;42.64;100690.00;6284550;22;45648;-80
2022/06/22 09:27:33;;;;;;;;;21.25;16.75;;;;;24.73;42.32;100685.38;6313734;22;45269;-84
2022/06/22 09:30:17;;;;;;;;;17.75;15.50;;;;;24.75;42.30;100687.97;6259420;22;45740;-78
2022/06/22 09:33:18;;;;;;;;;13.25;13.00;;;;;24.77;42.73;100689.59;6280081;22;45988;-77
2022/06/22 09:36:26;;;;;;;;;13.33;12.33;;;;;24.87;42.66;100684.50;6308546;22;45347;-78
2022/06/22 09:39:06;;;;;;;;;18.25;15.25;;;;;24.88;42.59;100680.81;6309477;22;45301;-78
2022/06/22 09:42:00;;;;;;;;;11.50;8.50;;;;;24.94;42.26;100684.94;6279974;22;45340;-78
2022/06/22 09:45:03;;;;;;;;;13.75;12.75;;;;;25.06;42.22;100681.47;6278751;22;46938;-78
2022/06/22 09:48:02;;;;;;;;;14.00;14.00;;;;;25.14;42.47;100686.34;6278032;22;45689;-79
2022/06/22 09:50:52;;;;;;;;;13.50;13.50;;;;;25.21;42.13;100677.81;6276708;22;45522;-78
2022/06/22 09:58:07;;;;;;;;;;;;;;;;;;;;;
2022/06/22 10:01:06;;;;;;;;;16.25;15.25;;;;;25.91;41.70;100682.13;6059500;23;71870;-78
2022/06/22 10:04:09;;;;;;;;;16.25;14.75;;;;;26.06;41.26;100672.97;6191079;22;45413;-78
2022/06/22 10:06:53;;;;;;;;;16.00;13.25;;;;;26.17;41.29;100677.63;6278296;22;45448;-78
2022/06/22 10:09:56;;;;;;;;;15.50;14.25;;;;;26.28;40.83;100671.47;6306036;22;45485;-79
2022/06/22 10:12:53;;;;;;;;;14.50;13.00;;;;;26.36;40.48;100679.91;6279474;22;45416;-78
2022/06/22 10:15:43;;;;;;;;;17.50;16.25;;;;;26.44;40.89;100682.91;6306908;22;45338;-83
2022/06/22 10:19:10;;;;;;;;;19.75;17.50;;;;;26.61;40.32;100665.53;6209251;22;45164;-83
2022/06/22 10:22:20;;;;;;;;;;;;;;;;;;;;;
2022/06/22 10:25:47;;;;;;;;;;;;;;;;;;;;;
2022/06/22 10:28:32;;;;;;;;;;;;;;;;;;;;;
2022/06/22 11:52:51;;;;;;;;;13.00;11.00;;;;;29.23;38.88;100655.16;6305899;22;45272;-82
2022/06/22 11:55:41;;;;;;;;;14.50;14.00;;;;;29.22;38.52;100646.19;6307490;22;45372;-82
2022/06/22 11:58:31;;;;;;;;;;;;;;;;;;;;;
2022/06/22 12:01:12;;;;;;;;;13.75;12.50;;;;;29.33;38.54;100639.84;6303905;22;74315;-81
2022/06/22 12:04:06;;;;;;;;;11.25;11.25;;;;;29.42;38.60;100633.63;6307527;22;45323;-81
2022/06/22 12:06:58;;;;;;;;;12.50;11.50;;;;;29.41;38.16;100636.50;6279471;22;45362;-81
2022/06/22 12:10:02;;;;;;;;;18.00;16.75;;;;;29.38;38.42;100623.19;6279123;22;45793;-81
2022/06/22 12:12:56;;;;;;;;;11.75;11.75;;;;;29.37;39.28;100635.88;6307760;22;45782;-82
2022/06/22 12:16:07;;;;;;;;;11.50;11.50;;;;;29.49;39.05;100644.84;6280144;22;45423;-82
2022/06/22 12:19:04;;;;;;;;;16.00;15.00;;;;;29.58;39.34;100645.91;6279666;22;45283;-84
2022/06/22 12:32:28;;;;;;;;;11.00;10.50;;;;;29.44;38.75;100652.50;6064256;23;45570;-83
2022/06/22 12:35:27;;;;;;;;;14.50;11.50;;;;;29.36;38.54;100660.44;6055253;23;45418;-84
2022/06/22 12:39:07;;;;;;;;;;;;;;;;;;;;;
2022/06/22 12:41:33;;;;;;;;;16.00;14.75;;;;;29.30;39.12;100679.91;6148512;23;45877;-86
2022/06/22 12:44:17;;;;;;;;;10.00;10.00;;;;;29.35;38.56;100680.38;6271056;22;45367;-83
2022/06/22 12:51:01;;;;;;;;;;;;;;;;;;;;;
2022/06/22 12:53:51;;;;;;;;;13.00;13.00;;;;;29.54;38.99;100658.00;6170376;22;72839;-81
2022/06/22 12:57:10;;;;;;;;;14.50;11.25;;;;;29.48;38.15;100656.66;6250692;22;45330;-88
2022/06/22 13:04:03;;;;;;;;;;;;;;;;;;;;;
2022/06/22 13:07:22;;;;;;;;;13.50;13.50;;;;;29.22;39.46;100657.03;5982985;23;73457;-85
2022/06/22 13:13:39;;;;;;;;;16.00;12.75;;;;;29.38;38.93;100647.63;6065464;23;45519;-81
2022/06/22 13:16:32;;;;;;;;;;;;;;;;;;;;;
2022/06/22 13:19:49;;;;;;;;;;;;;;;;;;;;;
2022/06/22 13:22:42;;;;;;;;;16.75;15.75;;;;;29.63;38.64;100638.22;6122075;23;69454;-82
2022/06/22 13:26:02;;;;;;;;;;;;;;;;;;;;;
2022/06/22 13:29:08;;;;;;;;;12.50;12.50;;;;;29.88;38.11;100634.28;6246558;22;73984;-81
2022/06/22 13:31:43;;;;;;;;;14.25;14.25;;;;;29.92;38.55;100632.19;6278338;22;45609;-82
2022/06/22 13:34:41;;;;;;;;;14.25;14.25;;;;;29.98;38.15;100620.78;6276232;22;45502;-81
2022/06/22 13:37:35;;;;;;;;;11.50;11.50;;;;;30.18;38.08;100622.63;6249304;22;45438;-82
2022/06/22 13:40:26;;;;;;;;;16.25;14.50;;;;;30.48;37.99;100620.91;6276765;22;45656;-80
2022/06/22 13:43:23;;;;;;;;;16.25;13.25;;;;;30.63;38.15;100607.78;6248903;22;45324;-79
2022/06/22 13:46:19;;;;;;;;;10.50;9.50;;;;;30.74;38.06;100613.09;6249066;22;45251;-79
2022/06/22 13:49:13;;;;;;;;;11.67;11.00;;;;;30.72;37.64;100618.69;6249416;22;45316;-79
2022/06/22 13:51:51;;;;;;;;;11.00;10.00;;;;;30.70;37.49;100614.38;6263177;22;47479;-80
2022/06/22 13:54:40;;;;;;;;;14.25;12.25;;;;;30.67;37.71;100601.09;6280108;22;45296;-80
2022/06/22 13:57:33;;;;;;;;;12.00;11.25;;;;;30.75;37.83;100598.53;6309053;22;45223;-79
2022/06/22 14:00:26;;;;;;;;;11.75;11.75;;;;;30.93;37.64;100594.16;6279084;22;45320;-78
2022/06/22 14:03:06;;;;;;;;;11.00;11.00;;;;;30.97;37.32;100592.00;6308505;22;45438;-79
2022/06/22 14:05:37;;;;;;;;;9.50;8.50;;;;;30.93;37.65;100588.72;6309145;22;45269;-81
2022/06/22 14:08:10;;;;;;;;;11.25;10.50;;;;;30.81;37.64;100578.09;6279631;22;45311;-81
2022/06/22 14:10:55;;;;;;;;;11.50;11.00;;;;;30.62;37.13;100573.47;6279408;22;45362;-80
2022/06/22 14:13:47;;;;;;;;;11.25;11.25;;;;;30.33;37.87;100576.94;6278773;22;47484;-82
2022/06/22 14:16:54;;;;;;;;;13.75;13.50;;;;;30.00;38.24;100569.94;6309054;22;45791;-81
2022/06/22 14:19:39;;;;;;;;;9.00;9.00;;;;;29.85;38.89;100577.56;6306210;22;45266;-79
2022/06/22 14:22:23;;;;;;;;;12.50;12.00;;;;;29.73;38.67;100568.63;6281732;22;45771;-79
2022/06/22 14:24:58;;;;;;;;;14.75;14.75;;;;;29.65;38.78;100568.44;6305797;22;48074;-82
2022/06/22 14:27:50;;;;;;;;;14.50;12.25;;;;;29.63;39.20;100560.41;6279550;22;45652;-79
2022/06/22 14:30:26;;;;;;;;;14.50;13.25;;;;;29.57;39.01;100560.94;6279941;22;45192;-80
2022/06/22 14:33:18;;;;;;;;;14.75;12.00;;;;;29.43;39.53;100545.84;6309010;22;45228;-80
2022/06/22 14:36:01;;;;;;;;;16.50;16.00;;;;;29.41;39.72;100553.25;6308702;22;46304;-81
2022/06/22 14:38:55;;;;;;;;;14.00;13.00;;;;;29.33;40.07;100544.06;6307967;22;45304;-81
2022/06/22 14:41:27;;;;;;;;;14.00;13.50;;;;;29.31;40.03;100540.63;6307688;22;45400;-81
2022/06/22 14:44:06;;;;;;;;;12.25;10.75;;;;;29.26;39.74;100530.16;6279048;22;45488;-80
2022/06/22 14:47:01;;;;;;;;;14.00;13.75;;;;;29.14;40.01;100523.09;6307329;22;45313;-84
2022/06/22 14:49:52;;;;;;;;;11.75;11.75;;;;;29.00;39.97;100525.09;6280546;22;45487;-80
2022/06/22 14:52:41;;;;;;;;;13.00;12.00;;;;;29.12;39.76;100514.22;6280509;22;45282;-80
2022/06/22 14:55:35;;;;;;;;;13.00;12.00;;;;;29.40;39.21;100513.56;6281005;22;45437;-81
2022/06/22 14:58:27;;;;;;;;;9.67;9.67;;;;;29.56;39.20;100512.22;6308022;22;46308;-82
2022/06/22 15:01:04;;;;;;;;;9.50;9.50;;;;;29.73;38.91;100510.78;6279362;22;45360;-84
2022/06/22 15:03:43;;;;;;;;;12.25;11.25;;;;;29.92;39.03;100515.44;6277777;22;45398;-83
2022/06/22 15:06:21;;;;;;;;;10.00;10.00;;;;;30.17;38.78;100527.69;6280462;22;45426;-80
2022/06/22 15:09:12;;;;;;;;;11.50;11.50;;;;;30.40;38.64;100528.38;6308169;22;45288;-81
2022/06/22 15:14:43;;;;;;;;;10.00;9.33;;;;;30.70;37.78;100521.97;6308012;22;45175;-81
2022/06/22 15:17:19;;;;;;;;;10.33;9.67;;;;;30.80;37.84;100525.56;6316927;22;45223;-80
2022/06/22 15:20:30;;;;;;;;;9.50;9.25;;;;;30.77;36.74;100532.16;6284247;22;46919;-80
2022/06/22 15:23:05;;;;;;;;;12.25;11.75;;;;;30.75;37.06;100515.13;6216112;22;45415;-78
2022/06/22 15:25:40;;;;;;;;;10.00;10.00;;;;;30.77;37.25;100526.72;6188723;22;45447;-79
2022/06/22 15:28:17;;;;;;;;;11.25;9.50;;;;;30.89;37.74;100518.44;6278031;22;45359;-78
2022/06/22 15:30:49;;;;;;;;;11.50;11.50;;;;;30.99;36.75;100519.31;6308467;22;46068;-79
2022/06/22 15:33:31;;;;;;;;;9.33;8.67;;;;;31.07;36.61;100532.19;6284045;22;45401;-81
2022/06/22 15:36:11;;;;;;;;;10.25;10.25;;;;;31.10;36.79;100538.19;6307991;22;45185;-80
2022/06/22 15:38:51;;;;;;;;;9.75;9.75;;;;;31.18;36.01;100548.34;6308580;22;45542;-80
2022/06/22 15:41:34;;;;;;;;;10.00;10.00;;;;;31.17;36.15;100554.81;6280366;22;46987;-80
2022/06/22 15:44:21;;;;;;;;;10.75;10.50;;;;;31.25;35.97;100556.78;6280676;22;45299;-81
2022/06/22 15:47:08;;;;;;;;;10.75;10.75;;;;;31.32;35.84;100557.94;6308245;22;45168;-80
2022/06/22 15:49:46;;;;;;;;;10.50;10.50;;;;;31.35;35.84;100563.09;6308357;22;45362;-80
2022/06/22 15:52:20;;;;;;;;;12.00;11.00;;;;;31.37;35.21;100556.53;6307817;22;45388;-79
2022/06/22 15:55:12;;;;;;;;;11.50;10.50;;;;;31.18;35.65;100545.63;6280230;22;45957;-81
2022/06/22 15:57:41;;;;;;;;;9.75;9.75;;;;;31.23;35.44;100546.06;6308748;22;45413;-81
2022/06/22 16:00:19;;;;;;;;;10.00;9.00;;;;;31.37;35.65;100552.94;6280279;22;45419;-81
2022/06/22 16:03:10;;;;;;;;;12.00;11.75;;;;;31.53;35.10;100545.03;6280254;22;47929;-80
2022/06/22 16:05:58;;;;;;;;;10.00;10.00;;;;;31.62;35.01;100536.00;6308341;22;45381;-80
2022/06/22 16:08:47;;;;;;;;;11.50;9.75;;;;;31.70;35.42;100529.81;6280017;22;45703;-80
2022/06/22 16:14:43;;;;;;;;;11.33;11.33;;;;;32.04;34.47;100527.41;6308002;22;45611;-81
2022/06/22 16:17:36;;;;;;;;;9.75;9.75;;;;;31.83;34.62;100526.75;6280475;22;45196;-81
2022/06/22 16:20:16;;;;;;;;;10.25;10.25;;;;;31.59;34.75;100519.94;6280234;22;45233;-81
2022/06/22 16:22:56;;;;;;;;;10.00;10.00;;;;;31.44;34.98;100513.28;6308906;22;45417;-82
2022/06/22 16:25:32;;;;;;;;;9.25;9.00;;;;;31.31;34.91;100508.09;6309213;22;45359;-82
2022/06/22 16:28:15;;;;;;;;;11.50;11.50;;;;;31.04;34.85;100506.13;6310086;22;45417;-82
2022/06/22 16:31:16;;;;;;;;;10.67;9.33;;;;;30.83;34.91;100506.28;6281688;22;45329;-83
2022/06/22 16:34:10;;;;;;;;;;;;;;;;;;;;;
2022/06/22 16:37:44;;;;;;;;;11.75;10.00;;;;;30.48;35.57;100507.66;6307051;22;74647;-83
2022/06/22 16:40:14;;;;;;;;;8.33;8.33;;;;;30.57;35.52;100500.50;6284475;22;45335;-81
2022/06/22 16:43:14;;;;;;;;;11.33;9.00;;;;;30.75;35.66;100503.38;6306821;22;45480;-83
2022/06/22 16:46:05;;;;;;;;;8.67;8.33;;;;;30.99;35.39;100503.00;6278320;22;45303;-83
2022/06/22 16:48:41;;;;;;;;;11.33;9.67;;;;;31.28;34.96;100504.84;6278492;22;46128;-83
2022/06/22 16:51:11;;;;;;;;;8.33;8.00;;;;;31.43;34.32;100497.94;6278987;22;45430;-82
2022/06/22 16:53:45;;;;;;;;;12.00;11.00;;;;;31.61;34.39;100501.63;6278046;22;45363;-82
2022/06/22 16:56:49;;;;;;;;;9.67;9.67;;;;;31.85;34.26;100505.69;6306873;22;45403;-83
2022/06/22 16:59:27;;;;;;;;;12.33;11.67;;;;;32.19;33.78;100518.78;6279935;22;48069;-83
2022/06/22 17:02:41;;;;;;;;;;;;;;;;;;;;;
2022/06/22 17:05:19;;;;;;;;;10.25;9.25;;;;;34.17;31.87;100514.88;6289948;22;68735;-81
2022/06/22 17:08:02;;;;;;;;;7.00;7.00;;;;;34.45;31.27;100508.13;6279841;22;45453;-80
2022/06/22 17:10:47;;;;;;;;;9.67;9.00;;;;;34.42;30.72;100513.94;6306975;22;46154;-81
2022/06/22 17:13:21;;;;;;;;;10.25;10.25;;;;;34.06;31.03;100512.44;6281138;22;45454;-80
2022/06/22 17:15:58;;;;;;;;;10.00;10.00;;;;;33.49;30.97;100521.09;6281330;22;45300;-84
2022/06/22 17:18:53;;;;;;;;;9.00;9.00;;;;;32.84;31.83;100516.78;6309551;22;45315;-82
2022/06/22 17:32:48;;;;;;;;;15.50;15.50;;;;;31.03;33.82;100544.34;6248484;22;45331;-83
2022/06/22 17:36:04;;;;;;;;;14.25;13.00;;;;;30.78;34.28;100541.16;6294178;22;46458;-83
2022/06/22 17:39:27;;;;;;;;;14.50;13.50;;;;;30.64;34.90;100550.59;6304397;22;45387;-82
2022/06/22 17:46:03;;;;;;;;;;;;;;;;;;;;;
2022/06/22 17:48:38;;;;;;;;;13.25;13.25;;;;;30.24;36.11;100554.19;6209041;22;76473;-80
2022/06/22 17:51:22;;;;;;;;;16.25;15.50;;;;;30.03;36.04;100547.94;6278519;22;45365;-81
2022/06/22 17:54:36;;;;;;;;;;;;;;;;;;;;;
2022/06/22 17:57:55;;;;;;;;;;;;;;;;;;;;;
2022/06/22 18:01:16;;;;;;;;;;;;;;;;;;;;;
2022/06/22 18:04:13;;;;;;;;;15.75;15.25;;;;;29.26;37.70;100562.72;6270733;22;45237;-80
2022/06/22 18:06:48;;;;;;;;;15.00;14.25;;;;;29.13;37.93;100554.75;6280515;22;45342;-80
2022/06/22 18:09:57;;;;;;;;;15.00;14.75;;;;;29.05;38.17;100567.25;6282318;22;45539;-80
2022/06/22 18:12:30;;;;;;;;;16.50;16.00;;;;;28.95;38.19;100557.16;6222547;22;47596;-79
2022/06/22 18:15:16;;;;;;;;;10.75;10.75;;;;;28.89;38.18;100557.66;6282246;22;45369;-78
2022/06/22 18:17:51;;;;;;;;;17.75;16.00;;;;;28.85;38.71;100567.03;6283793;22;45355;-80
2022/06/22 18:20:22;;;;;;;;;14.50;14.50;;;;;28.83;38.35;100569.00;6283749;22;45333;-79
2022/06/22 18:22:52;;;;;;;;;19.00;18.00;;;;;28.76;39.38;100573.19;6281290;22;47658;-78
2022/06/22 18:25:28;;;;;;;;;16.00;16.00;;;;;28.72;39.00;100563.63;6313081;22;45310;-81
2022/06/22 18:28:07;;;;;;;;;13.00;12.00;;;;;28.70;39.68;100568.31;6311193;22;45298;-82
2022/06/22 18:30:46;;;;;;;;;12.75;12.75;;;;;28.69;40.02;100574.72;6280762;22;45275;-81
2022/06/22 18:37:39;;;;;;;;;15.00;14.75;;;;;28.59;39.82;100580.88;6225804;22;45462;-82
2022/06/22 18:44:12;;;;;;;;;;;;;;;;;;;;;
2022/06/22 18:55:16;;;;;;;;;16.25;15.50;;;;;28.06;41.25;100580.63;6069028;23;45470;-83
2022/06/22 18:58:40;;;;;;;;;14.50;14.00;;;;;28.01;41.34;100584.69;5977103;23;45529;-83
2022/06/22 19:54:19;;;;;;;;;12.50;12.50;;;;;26.12;47.63;100604.22;6279104;22;45550;-81
2022/06/22 19:57:40;;;;;;;;;17.25;15.25;;;;;26.05;48.12;100601.09;6252590;22;46611;-81
2022/06/22 20:04:42;;;;;;;;;;;;;;;;;;;;;
2022/06/22 20:14:43;;;;;;;;;16.00;16.00;;;;;25.78;49.39;100606.56;6180913;22;45571;-81
2022/06/22 20:17:21;;;;;;;;;15.00;13.00;;;;;25.71;49.18;100619.63;6216882;22;45602;-80
2022/06/22 20:23:53;;;;;;;;;;;;;;;;;;;;;
2022/06/22 20:33:57;;;;;;;;;;;;;;;;;;;;;
2022/06/22 20:37:15;;;;;;;;;14.50;14.00;;;;;25.45;50.42;100648.34;6181751;23;75934;-82
2022/06/22 20:40:03;;;;;;;;;16.25;16.00;;;;;25.39;50.38;100643.34;6181842;23;45452;-82
2022/06/22 20:46:29;;;;;;;;;16.00;16.00;;;;;25.35;51.00;100655.31;6277014;22;45710;-81
2022/06/22 20:58:57;;;;;;;;;16.00;16.00;;;;;24.99;51.03;100666.66;6096262;23;45728;-81
2022/06/22 21:02:29;;;;;;;;;;;;;;;;;;;;;
2022/06/22 21:06:04;;;;;;;;;;;;;;;;;;;;;
2022/06/22 21:12:20;;;;;;;;;13.75;12.00;;;;;24.55;51.64;100678.47;6280960;22;45988;-83
2022/06/22 21:18:56;;;;;;;;;23.50;23.50;;;;;24.47;51.48;100664.63;6258600;22;45574;-83
2022/06/22 21:22:14;;;;;;;;;16.25;16.25;;;;;24.43;51.74;100662.13;6261309;22;45504;-82
2022/06/22 21:27:47;;;;;;;;;15.50;15.50;;;;;24.34;51.50;100675.25;6273010;22;46867;-82
2022/06/22 21:34:19;;;;;;;;;13.25;13.25;;;;;24.23;52.11;100661.63;6165403;23;45360;-81
2022/06/22 21:37:19;;;;;;;;;13.25;13.25;;;;;24.19;51.67;100669.00;6276061;22;45485;-85
2022/06/22 21:40:22;;;;;;;;;12.50;11.75;;;;;24.16;51.74;100663.81;6276796;22;45533;-82
2022/06/22 21:42:50;;;;;;;;;18.50;17.75;;;;;24.14;51.64;100666.63;6277017;22;45416;-79
2022/06/22 21:45:21;;;;;;;;;14.00;14.00;;;;;24.11;51.62;100672.19;6249688;22;45415;-81
2022/06/22 21:48:38;;;;;;;;;15.00;14.50;;;;;24.06;51.93;100671.59;6249417;22;45495;-81
2022/06/22 21:51:06;;;;;;;;;15.00;13.50;;;;;24.05;51.76;100663.63;6224709;22;46354;-80
2022/06/22 21:53:45;;;;;;;;;15.75;14.00;;;;;24.01;51.82;100662.94;6250251;22;45367;-81
2022/06/22 21:56:26;;;;;;;;;14.75;14.50;;;;;23.98;52.66;100660.44;6275796;22;45584;-81
2022/06/22 21:59:16;;;;;;;;;15.00;14.25;;;;;23.95;52.54;100652.53;6249860;22;45591;-81
2022/06/22 22:02:21;;;;;;;;;;;;;;;;;;;;;
2022/06/22 22:05:07;;;;;;;;;;;;;;;;;;;;;
2022/06/22 22:07:48;;;;;;;;;17.25;16.00;;;;;23.83;52.75;100670.28;6275935;22;69000;-80
2022/06/22 22:10:17;;;;;;;;;16.50;15.25;;;;;23.79;52.95;100668.78;6277555;22;45506;-81
2022/06/22 22:12:47;;;;;;;;;18.75;16.50;;;;;23.75;53.13;100659.13;6248874;22;47900;-81
2022/06/22 22:15:18;;;;;;;;;14.00;13.75;;;;;23.71;52.86;100661.16;6276818;22;45406;-81
2022/06/22 22:17:52;;;;;;;;;13.75;12.75;;;;;23.67;53.19;100664.06;6248890;22;45372;-81
2022/06/22 22:20:26;;;;;;;;;18.00;17.00;;;;;23.62;52.95;100672.41;6248624;22;45730;-80
2022/06/22 22:22:57;;;;;;;;;15.00;15.00;;;;;23.59;53.30;100672.59;6247962;22;47327;-79
2022/06/22 22:25:27;;;;;;;;;18.75;18.00;;;;;23.55;53.65;100671.06;6247799;22;45547;-79
2022/06/22 22:28:04;;;;;;;;;15.25;15.25;;;;;23.52;53.77;100671.22;6276414;22;45523;-80
2022/06/22 22:30:34;;;;;;;;;15.25;15.25;;;;;23.53;53.61;100683.72;6276536;22;45351;-80
2022/06/22 22:33:00;;;;;;;;;15.50;15.50;;;;;23.52;53.94;100682.84;6248583;22;47458;-81
2022/06/22 22:35:40;;;;;;;;;16.50;16.00;;;;;23.52;54.05;100681.97;6276330;22;45320;-80
2022/06/22 22:38:34;;;;;;;;;15.75;15.75;;;;;23.51;54.11;100685.63;6274715;22;45243;-81
2022/06/22 22:41:02;;;;;;;;;20.75;19.50;;;;;23.52;54.13;100687.34;6250853;22;45310;-83
2022/06/22 22:43:45;;;;;;;;;14.75;14.75;;;;;23.52;53.84;100688.22;6249549;22;46600;-83
2022/06/22 22:46:18;;;;;;;;;17.25;17.25;;;;;23.53;54.65;100681.88;6279674;22;45291;-80
2022/06/22 22:48:53;;;;;;;;;20.50;18.00;;;;;23.51;54.35;100680.25;6250359;22;45374;-82
2022/06/22 22:51:43;;;;;;;;;17.75;16.00;;;;;23.49;54.27;100680.31;6278648;22;45196;-82
2022/06/22 22:54:16;;;;;;;;;20.25;18.50;;;;;23.47;54.76;100678.69;6250469;22;47453;-82
2022/06/22 22:57:07;;;;;;;;;23.50;19.50;;;;;23.45;54.67;100676.09;6275892;22;46301;-80
2022/06/22 22:59:39;;;;;;;;;18.75;17.50;;;;;23.46;54.70;100671.59;6252216;22;45533;-81
2022/06/22 23:02:34;;;;;;;;;17.75;16.75;;;;;23.42;55.11;100678.97;6280591;22;45385;-81
2022/06/22 23:05:24;;;;;;;;;18.75;17.50;;;;;23.43;54.98;100683.38;6250445;22;47505;-81
2022/06/22 23:08:07;;;;;;;;;15.75;15.75;;;;;23.43;55.15;100686.06;6250357;22;45349;-82
2022/06/22 23:10:38;;;;;;;;;18.00;16.00;;;;;23.42;55.22;100687.03;6278460;22;45256;-81
2022/06/22 23:13:06;;;;;;;;;15.25;15.25;;;;;23.41;54.86;100684.41;6277567;22;45460;-81
2022/06/22 23:15:36;;;;;;;;;21.75;19.75;;;;;23.41;55.03;100687.09;6276125;22;45494;-81
2022/06/22 23:27:59;;;;;;;;;17.00;17.00;;;;;23.25;55.47;100669.19;6036137;23;45576;-82
2022/06/22 23:31:04;;;;;;;;;;;;;;;;;;;;;
